ANZ915 NFFN-YSSY
Flight info
| Callsign | ANZ915 |
|---|---|
| Flight time | N/A |
| Altitude | 30000 |
| Route | ECHO MI DCT VIBEX G224 TERUX/N0477F320 G224 NF B450 LHI H258 RIKNI N774 MARLN |
| Aircraft | B738/M-SDE2E3FGHIRWXY/LB1 |
Departure
| Time | 2026-05-07 01:44 |
|---|---|
| Airport | Nadi International Airport (NFFN) |
Arrival
| Time | N/A |
|---|---|
| Airport | Sydney Kingsford Smith International Airport (YSSY) |
| Time | Latitude | Longitude | Altitude | Speed | Heading |
|---|---|---|---|---|---|
| 2026-05-07 01:12 | -17.75143 | 177.45053 | 71 ft | 0 kts | 195° |
| 2026-05-07 01:31 | -17.75131 | 177.45058 | 71 ft | 2 kts | 195° |
| 2026-05-07 01:31 | -17.75116 | 177.45061 | 72 ft | 2 kts | 195° |
| 2026-05-07 01:31 | -17.75102 | 177.45067 | 72 ft | 2 kts | 217° |
| 2026-05-07 01:31 | -17.75091 | 177.45077 | 73 ft | 2 kts | 234° |
| 2026-05-07 01:32 | -17.75084 | 177.45091 | 72 ft | 2 kts | 254° |
| 2026-05-07 01:32 | -17.75082 | 177.45106 | 72 ft | 2 kts | 273° |
| 2026-05-07 01:32 | -17.75083 | 177.45116 | 71 ft | 1 kts | 285° |
| 2026-05-07 01:32 | -17.75085 | 177.45122 | 71 ft | 0 kts | 287° |
| 2026-05-07 01:34 | -17.75084 | 177.45119 | 71 ft | 1 kts | 286° |
| 2026-05-07 01:34 | -17.75080 | 177.45103 | 71 ft | 3 kts | 285° |
| 2026-05-07 01:35 | -17.75071 | 177.45071 | 71 ft | 5 kts | 285° |
| 2026-05-07 01:35 | -17.75058 | 177.45023 | 71 ft | 8 kts | 285° |
| 2026-05-07 01:35 | -17.75047 | 177.44959 | 71 ft | 8 kts | 276° |
| 2026-05-07 01:35 | -17.75041 | 177.44904 | 71 ft | 6 kts | 277° |
| 2026-05-07 01:36 | -17.75032 | 177.44861 | 71 ft | 5 kts | 283° |
| 2026-05-07 01:36 | -17.75024 | 177.44826 | 71 ft | 5 kts | 283° |
| 2026-05-07 01:36 | -17.75012 | 177.44771 | 71 ft | 9 kts | 280° |
| 2026-05-07 01:36 | -17.75041 | 177.44711 | 71 ft | 10 kts | 218° |
| 2026-05-07 01:37 | -17.75106 | 177.44658 | 71 ft | 12 kts | 217° |
| 2026-05-07 01:37 | -17.75183 | 177.44597 | 71 ft | 15 kts | 218° |
| 2026-05-07 01:37 | -17.75281 | 177.44518 | 71 ft | 19 kts | 217° |
| 2026-05-07 01:37 | -17.75400 | 177.44423 | 71 ft | 23 kts | 217° |
| 2026-05-07 01:38 | -17.75535 | 177.44315 | 71 ft | 23 kts | 218° |
| 2026-05-07 01:38 | -17.75661 | 177.44215 | 71 ft | 21 kts | 216° |
| 2026-05-07 01:38 | -17.75776 | 177.44121 | 71 ft | 20 kts | 218° |
| 2026-05-07 01:38 | -17.75890 | 177.44029 | 71 ft | 21 kts | 217° |
| 2026-05-07 01:39 | -17.76019 | 177.43927 | 71 ft | 24 kts | 218° |
| 2026-05-07 01:39 | -17.76165 | 177.43808 | 71 ft | 27 kts | 218° |
| 2026-05-07 01:39 | -17.76325 | 177.43680 | 71 ft | 29 kts | 217° |
| 2026-05-07 01:39 | -17.76481 | 177.43555 | 71 ft | 27 kts | 218° |
| 2026-05-07 01:40 | -17.76627 | 177.43437 | 71 ft | 25 kts | 218° |
| 2026-05-07 01:40 | -17.76762 | 177.43327 | 71 ft | 23 kts | 217° |
| 2026-05-07 01:40 | -17.76888 | 177.43228 | 71 ft | 21 kts | 217° |
| 2026-05-07 01:40 | -17.77004 | 177.43133 | 71 ft | 20 kts | 216° |
| 2026-05-07 01:41 | -17.77111 | 177.43048 | 71 ft | 18 kts | 217° |
| 2026-05-07 01:41 | -17.77203 | 177.42970 | 71 ft | 15 kts | 220° |
| 2026-05-07 01:41 | -17.77260 | 177.42902 | 71 ft | 11 kts | 264° |
| 2026-05-07 01:41 | -17.77293 | 177.42850 | 71 ft | 9 kts | 174° |
| 2026-05-07 01:42 | -17.77321 | 177.42891 | 71 ft | 7 kts | 77° |
| 2026-05-07 01:42 | -17.77288 | 177.42920 | 71 ft | 5 kts | 19° |
| 2026-05-07 01:42 | -17.77247 | 177.42940 | 71 ft | 7 kts | 37° |
| 2026-05-07 01:42 | -17.77199 | 177.42979 | 71 ft | 10 kts | 37° |
| 2026-05-07 01:43 | -17.77102 | 177.43057 | 71 ft | 37 kts | 38° |
| 2026-05-07 01:43 | -17.76709 | 177.43373 | 71 ft | 103 kts | 37° |
| 2026-05-07 01:43 | -17.75971 | 177.43962 | 71 ft | 159 kts | 38° |
| 2026-05-07 01:43 | -17.74965 | 177.44774 | 104 ft | 201 kts | 38° |
| 2026-05-07 01:44 | -17.73827 | 177.45647 | 739 ft | 199 kts | 31° |
| 2026-05-07 01:44 | -17.72579 | 177.46123 | 1511 ft | 198 kts | 13° |
| 2026-05-07 01:44 | -17.71101 | 177.46208 | 1694 ft | 223 kts | 358° |
| 2026-05-07 01:44 | -17.69560 | 177.45895 | 2246 ft | 223 kts | 345° |
| 2026-05-07 01:45 | -17.68202 | 177.45259 | 2963 ft | 214 kts | 327° |
| 2026-05-07 01:45 | -17.67084 | 177.44132 | 3098 ft | 238 kts | 306° |
| 2026-05-07 01:45 | -17.66277 | 177.42496 | 3241 ft | 258 kts | 289° |
| 2026-05-07 01:45 | -17.65957 | 177.40759 | 4170 ft | 237 kts | 263° |
| 2026-05-07 01:46 | -17.66426 | 177.39079 | 4465 ft | 249 kts | 240° |
| 2026-05-07 01:46 | -17.67628 | 177.37723 | 4712 ft | 259 kts | 207° |
| 2026-05-07 01:46 | -17.69352 | 177.37314 | 5223 ft | 257 kts | 174° |
| 2026-05-07 01:46 | -17.71124 | 177.37672 | 5712 ft | 261 kts | 166° |
| 2026-05-07 01:47 | -17.72955 | 177.37955 | 6106 ft | 271 kts | 178° |
| 2026-05-07 01:47 | -17.74866 | 177.37817 | 6580 ft | 277 kts | 191° |
| 2026-05-07 01:47 | -17.76730 | 177.37302 | 7157 ft | 278 kts | 198° |
| 2026-05-07 01:47 | -17.78567 | 177.36636 | 7732 ft | 279 kts | 199° |
| 2026-05-07 01:48 | -17.80389 | 177.35953 | 8280 ft | 280 kts | 199° |
| 2026-05-07 01:48 | -17.82249 | 177.35272 | 8851 ft | 281 kts | 199° |
| 2026-05-07 01:48 | -17.84099 | 177.34613 | 9396 ft | 283 kts | 198° |
| 2026-05-07 01:48 | -17.85967 | 177.33958 | 9926 ft | 285 kts | 198° |
| 2026-05-07 01:49 | -17.87869 | 177.33296 | 10365 ft | 291 kts | 198° |
| 2026-05-07 01:49 | -17.89807 | 177.32497 | 10633 ft | 305 kts | 207° |
| 2026-05-07 01:49 | -17.91580 | 177.31172 | 10901 ft | 317 kts | 222° |
| 2026-05-07 01:49 | -17.93189 | 177.29517 | 11098 ft | 330 kts | 225° |
| 2026-05-07 01:50 | -17.94822 | 177.27721 | 11278 ft | 344 kts | 226° |
| 2026-05-07 01:50 | -17.96511 | 177.25876 | 11408 ft | 358 kts | 225° |
| 2026-05-07 01:50 | -17.98305 | 177.23958 | 11528 ft | 372 kts | 224° |
| 2026-05-07 01:50 | -18.00166 | 177.22002 | 11626 ft | 385 kts | 224° |
| 2026-05-07 01:51 | -18.02087 | 177.20001 | 11933 ft | 392 kts | 224° |
| 2026-05-07 01:51 | -18.04041 | 177.17976 | 12372 ft | 393 kts | 224° |
| 2026-05-07 01:51 | -18.05988 | 177.15961 | 12784 ft | 396 kts | 224° |
| 2026-05-07 01:51 | -18.07969 | 177.13907 | 13233 ft | 398 kts | 224° |
| 2026-05-07 01:52 | -18.09950 | 177.11852 | 13703 ft | 399 kts | 224° |
| 2026-05-07 01:52 | -18.11940 | 177.09784 | 14176 ft | 402 kts | 224° |
| 2026-05-07 01:52 | -18.13920 | 177.07726 | 14695 ft | 402 kts | 224° |
| 2026-05-07 01:52 | -18.15924 | 177.05640 | 15198 ft | 403 kts | 224° |
| 2026-05-07 01:53 | -18.17909 | 177.03574 | 15694 ft | 405 kts | 224° |
| 2026-05-07 01:53 | -18.19922 | 177.01476 | 16212 ft | 405 kts | 224° |
| 2026-05-07 01:53 | -18.21921 | 176.99394 | 16673 ft | 407 kts | 224° |
| 2026-05-07 01:53 | -18.24003 | 176.97316 | 17147 ft | 408 kts | 221° |
| 2026-05-07 01:54 | -18.26170 | 176.95430 | 17623 ft | 408 kts | 217° |
| 2026-05-07 01:54 | -18.28453 | 176.93645 | 18092 ft | 409 kts | 215° |
| 2026-05-07 01:54 | -18.30818 | 176.91905 | 18446 ft | 413 kts | 214° |
| 2026-05-07 01:54 | -18.33185 | 176.90210 | 18877 ft | 415 kts | 214° |
| 2026-05-07 01:55 | -18.35585 | 176.88496 | 19291 ft | 417 kts | 214° |
| 2026-05-07 01:55 | -18.38002 | 176.86763 | 19651 ft | 420 kts | 214° |
| 2026-05-07 01:55 | -18.40420 | 176.85017 | 20063 ft | 422 kts | 215° |
| 2026-05-07 01:55 | -18.42857 | 176.83249 | 20440 ft | 424 kts | 215° |
| 2026-05-07 01:56 | -18.45294 | 176.81473 | 20850 ft | 426 kts | 215° |
| 2026-05-07 01:56 | -18.47742 | 176.79684 | 21244 ft | 428 kts | 215° |
| 2026-05-07 01:56 | -18.50203 | 176.77884 | 21638 ft | 429 kts | 216° |
| 2026-05-07 01:56 | -18.52681 | 176.76070 | 21992 ft | 432 kts | 216° |
| 2026-05-07 01:57 | -18.55135 | 176.74272 | 22399 ft | 433 kts | 216° |
| 2026-05-07 01:57 | -18.57636 | 176.72438 | 22724 ft | 436 kts | 216° |
| 2026-05-07 01:57 | -18.60142 | 176.70601 | 23101 ft | 437 kts | 216° |
| 2026-05-07 01:57 | -18.62650 | 176.68759 | 23494 ft | 438 kts | 216° |
| 2026-05-07 01:58 | -18.65140 | 176.66931 | 23848 ft | 440 kts | 216° |
| 2026-05-07 01:58 | -18.67668 | 176.65076 | 24225 ft | 440 kts | 216° |
| 2026-05-07 01:58 | -18.70183 | 176.63228 | 24562 ft | 442 kts | 216° |
| 2026-05-07 01:58 | -18.72730 | 176.61356 | 24897 ft | 443 kts | 216° |
| 2026-05-07 01:59 | -18.75267 | 176.59489 | 25220 ft | 444 kts | 216° |
| 2026-05-07 01:59 | -18.77787 | 176.57637 | 25738 ft | 440 kts | 216° |
| 2026-05-07 01:59 | -18.80290 | 176.55795 | 26264 ft | 436 kts | 216° |
| 2026-05-07 01:59 | -18.82773 | 176.53969 | 26740 ft | 434 kts | 216° |
| 2026-05-07 02:00 | -18.85246 | 176.52148 | 27136 ft | 432 kts | 217° |
| 2026-05-07 02:00 | -18.87737 | 176.50313 | 27561 ft | 430 kts | 217° |
| 2026-05-07 02:00 | -18.90176 | 176.48517 | 27988 ft | 428 kts | 217° |
| 2026-05-07 02:00 | -18.92602 | 176.46727 | 28401 ft | 425 kts | 217° |
| 2026-05-07 02:01 | -18.95047 | 176.44925 | 28822 ft | 422 kts | 217° |
| 2026-05-07 02:01 | -18.97444 | 176.43156 | 29231 ft | 420 kts | 217° |
| 2026-05-07 02:01 | -18.99041 | 176.41977 | 29494 ft | 418 kts | 217° |
| 2026-05-07 02:01 | -19.02197 | 176.39647 | 29912 ft | 417 kts | 217° |
| 2026-05-07 02:02 | -19.04610 | 176.37862 | 29927 ft | 419 kts | 217° |
| 2026-05-07 02:02 | -19.09374 | 176.34325 | 29929 ft | 415 kts | 217° |
| 2026-05-07 02:03 | -19.14128 | 176.30791 | 29927 ft | 417 kts | 217° |
| 2026-05-07 02:03 | -19.18879 | 176.27257 | 29928 ft | 416 kts | 217° |
| 2026-05-07 02:04 | -19.23628 | 176.23723 | 29932 ft | 415 kts | 217° |
| 2026-05-07 02:04 | -19.28354 | 176.20204 | 29940 ft | 416 kts | 217° |
| 2026-05-07 02:05 | -19.33110 | 176.16660 | 29943 ft | 415 kts | 217° |
| 2026-05-07 02:05 | -19.37845 | 176.13129 | 29946 ft | 416 kts | 217° |
| 2026-05-07 02:06 | -19.42587 | 176.09592 | 29942 ft | 416 kts | 217° |
| 2026-05-07 02:06 | -19.47339 | 176.06044 | 29942 ft | 416 kts | 217° |
| 2026-05-07 02:07 | -19.52075 | 176.02507 | 29937 ft | 415 kts | 217° |
| 2026-05-07 02:07 | -19.59145 | 175.97220 | 29939 ft | 415 kts | 217° |
| 2026-05-07 02:08 | -19.63908 | 175.93657 | 29938 ft | 416 kts | 217° |
| 2026-05-07 02:08 | -19.68641 | 175.90111 | 29940 ft | 416 kts | 217° |
| 2026-05-07 02:09 | -19.73362 | 175.86572 | 29942 ft | 415 kts | 217° |
| 2026-05-07 02:09 | -19.78106 | 175.83015 | 29944 ft | 417 kts | 217° |
| 2026-05-07 02:10 | -19.82854 | 175.79451 | 29944 ft | 415 kts | 217° |
| 2026-05-07 02:10 | -19.87565 | 175.75913 | 29944 ft | 415 kts | 217° |
| 2026-05-07 02:11 | -19.92298 | 175.72354 | 29946 ft | 415 kts | 217° |
| 2026-05-07 02:11 | -19.97008 | 175.68810 | 29945 ft | 414 kts | 217° |
| 2026-05-07 02:12 | -20.01737 | 175.65248 | 29944 ft | 414 kts | 217° |
| 2026-05-07 02:12 | -20.06448 | 175.61699 | 29945 ft | 414 kts | 217° |
| 2026-05-07 02:13 | -20.11156 | 175.58148 | 29948 ft | 416 kts | 217° |
| 2026-05-07 02:13 | -20.15880 | 175.54582 | 29949 ft | 414 kts | 217° |
| 2026-05-07 02:14 | -20.20606 | 175.51013 | 29952 ft | 416 kts | 217° |
| 2026-05-07 02:14 | -20.25331 | 175.47441 | 29950 ft | 415 kts | 217° |
| 2026-05-07 02:15 | -20.30053 | 175.43870 | 29952 ft | 416 kts | 217° |
| 2026-05-07 02:15 | -20.34803 | 175.40276 | 29953 ft | 415 kts | 217° |
| 2026-05-07 02:16 | -20.39500 | 175.36717 | 29954 ft | 414 kts | 217° |
| 2026-05-07 02:16 | -20.44212 | 175.33145 | 29952 ft | 414 kts | 218° |
| 2026-05-07 02:17 | -20.48921 | 175.29573 | 29955 ft | 414 kts | 217° |
| 2026-05-07 02:17 | -20.53608 | 175.26015 | 29957 ft | 414 kts | 218° |
| 2026-05-07 02:18 | -20.58307 | 175.22444 | 29959 ft | 413 kts | 217° |
| 2026-05-07 02:18 | -20.63006 | 175.18870 | 29959 ft | 414 kts | 217° |
| 2026-05-07 02:19 | -20.67732 | 175.15274 | 29961 ft | 415 kts | 217° |
| 2026-05-07 02:19 | -20.72433 | 175.11693 | 29961 ft | 415 kts | 218° |
| 2026-05-07 02:20 | -20.77132 | 175.08110 | 29962 ft | 415 kts | 217° |
| 2026-05-07 02:20 | -20.81856 | 175.04507 | 29963 ft | 415 kts | 218° |
| 2026-05-07 02:21 | -20.86535 | 175.00935 | 29964 ft | 414 kts | 218° |
| 2026-05-07 02:21 | -20.91248 | 174.97336 | 29964 ft | 413 kts | 217° |
| 2026-05-07 02:22 | -20.95927 | 174.93758 | 29965 ft | 414 kts | 218° |
| 2026-05-07 02:22 | -21.00615 | 174.90170 | 29967 ft | 412 kts | 218° |
| 2026-05-07 02:23 | -21.05311 | 174.86575 | 29968 ft | 414 kts | 217° |
| 2026-05-07 02:23 | -21.09980 | 174.82996 | 29972 ft | 413 kts | 218° |
| 2026-05-07 02:24 | -21.14676 | 174.79395 | 29970 ft | 413 kts | 218° |
| 2026-05-07 02:24 | -21.19358 | 174.75798 | 29973 ft | 414 kts | 218° |
| 2026-05-07 02:25 | -21.24046 | 174.72197 | 29972 ft | 412 kts | 218° |
| 2026-05-07 02:25 | -21.28720 | 174.68604 | 29974 ft | 414 kts | 218° |
| 2026-05-07 02:26 | -21.33389 | 174.65010 | 29973 ft | 412 kts | 218° |
| 2026-05-07 02:26 | -21.38050 | 174.61421 | 29977 ft | 412 kts | 217° |
| 2026-05-07 02:27 | -21.42727 | 174.57817 | 29975 ft | 412 kts | 218° |
| 2026-05-07 02:27 | -21.47412 | 174.54204 | 29977 ft | 412 kts | 217° |
| 2026-05-07 02:28 | -21.52078 | 174.50603 | 29977 ft | 412 kts | 218° |
| 2026-05-07 02:28 | -21.56750 | 174.46992 | 29978 ft | 414 kts | 218° |
| 2026-05-07 02:29 | -21.61413 | 174.43387 | 29978 ft | 413 kts | 218° |
| 2026-05-07 02:29 | -21.66084 | 174.39774 | 29983 ft | 412 kts | 218° |
| 2026-05-07 02:30 | -21.70769 | 174.36145 | 29984 ft | 413 kts | 218° |
| 2026-05-07 02:30 | -21.75413 | 174.32546 | 29984 ft | 412 kts | 218° |
| 2026-05-07 02:31 | -21.80082 | 174.28925 | 29984 ft | 411 kts | 218° |
| 2026-05-07 02:31 | -21.84739 | 174.25308 | 29985 ft | 412 kts | 218° |
| 2026-05-07 02:32 | -21.89403 | 174.21684 | 29984 ft | 411 kts | 218° |
| 2026-05-07 02:32 | -21.94026 | 174.18091 | 29985 ft | 411 kts | 218° |
| 2026-05-07 02:33 | -21.98672 | 174.14475 | 29987 ft | 412 kts | 218° |
| 2026-05-07 02:33 | -22.03343 | 174.10835 | 29992 ft | 412 kts | 218° |
| 2026-05-07 02:34 | -22.08000 | 174.07205 | 29987 ft | 411 kts | 218° |
| 2026-05-07 02:34 | -22.12651 | 174.03578 | 29989 ft | 413 kts | 218° |
| 2026-05-07 02:35 | -22.17318 | 173.99934 | 29989 ft | 412 kts | 218° |
| 2026-05-07 02:35 | -22.21986 | 173.96287 | 29989 ft | 412 kts | 218° |
| 2026-05-07 02:36 | -22.26635 | 173.92654 | 29983 ft | 413 kts | 218° |
| 2026-05-07 02:36 | -22.31291 | 173.89012 | 29977 ft | 411 kts | 218° |
| 2026-05-07 02:37 | -22.35914 | 173.85391 | 29974 ft | 412 kts | 218° |
| 2026-05-07 02:37 | -22.40557 | 173.81752 | 29977 ft | 411 kts | 218° |
| 2026-05-07 02:38 | -22.45206 | 173.78105 | 29978 ft | 412 kts | 218° |
| 2026-05-07 02:38 | -22.49845 | 173.74461 | 29975 ft | 411 kts | 218° |
| 2026-05-07 02:39 | -22.54495 | 173.70807 | 29981 ft | 412 kts | 218° |
| 2026-05-07 02:39 | -22.59150 | 173.67145 | 29979 ft | 412 kts | 218° |
| 2026-05-07 02:40 | -22.63784 | 173.63498 | 29979 ft | 413 kts | 218° |
| 2026-05-07 02:40 | -22.68466 | 173.59810 | 29982 ft | 412 kts | 218° |
| 2026-05-07 02:41 | -22.73100 | 173.56155 | 29982 ft | 412 kts | 218° |
| 2026-05-07 02:41 | -22.77741 | 173.52493 | 29983 ft | 412 kts | 218° |
| 2026-05-07 02:42 | -22.82371 | 173.48836 | 29984 ft | 411 kts | 218° |
| 2026-05-07 02:42 | -22.87028 | 173.45154 | 29993 ft | 412 kts | 218° |
| 2026-05-07 02:43 | -22.91662 | 173.41489 | 29996 ft | 411 kts | 218° |
| 2026-05-07 02:43 | -22.96306 | 173.37810 | 29990 ft | 412 kts | 218° |
| 2026-05-07 02:44 | -23.00924 | 173.34149 | 30002 ft | 412 kts | 219° |
| 2026-05-07 02:44 | -23.05589 | 173.30449 | 30009 ft | 412 kts | 218° |
| 2026-05-07 02:45 | -23.10220 | 173.26772 | 30009 ft | 412 kts | 219° |
| 2026-05-07 02:45 | -23.14842 | 173.23099 | 30011 ft | 412 kts | 219° |
| 2026-05-07 02:46 | -23.19467 | 173.19420 | 30013 ft | 412 kts | 219° |
| 2026-05-07 02:46 | -23.24097 | 173.15735 | 30013 ft | 412 kts | 219° |
| 2026-05-07 02:47 | -23.28756 | 173.12022 | 30015 ft | 413 kts | 219° |
| 2026-05-07 02:47 | -23.33370 | 173.08342 | 30014 ft | 411 kts | 219° |
| 2026-05-07 02:48 | -23.38022 | 173.04628 | 30015 ft | 413 kts | 219° |
| 2026-05-07 02:48 | -23.42654 | 173.00928 | 30020 ft | 411 kts | 219° |
| 2026-05-07 02:49 | -23.47275 | 172.97232 | 30016 ft | 413 kts | 219° |
| 2026-05-07 02:49 | -23.51894 | 172.93536 | 30022 ft | 413 kts | 219° |
| 2026-05-07 02:50 | -23.56529 | 172.89824 | 30024 ft | 412 kts | 219° |
| 2026-05-07 02:50 | -23.61175 | 172.86098 | 30025 ft | 413 kts | 219° |
| 2026-05-07 02:51 | -23.65808 | 172.82382 | 30024 ft | 412 kts | 219° |
| 2026-05-07 02:51 | -23.70418 | 172.78679 | 30024 ft | 412 kts | 219° |
| 2026-05-07 02:52 | -23.75041 | 172.74963 | 30024 ft | 412 kts | 219° |
| 2026-05-07 02:52 | -23.79672 | 172.71237 | 30028 ft | 412 kts | 219° |
| 2026-05-07 02:53 | -23.84322 | 172.67493 | 30025 ft | 413 kts | 219° |
| 2026-05-07 02:53 | -23.88940 | 172.63771 | 30030 ft | 413 kts | 219° |
| 2026-05-07 02:54 | -23.93558 | 172.60046 | 30027 ft | 413 kts | 219° |
| 2026-05-07 02:54 | -23.98206 | 172.56293 | 30028 ft | 413 kts | 219° |
| 2026-05-07 02:55 | -24.02833 | 172.52553 | 30027 ft | 413 kts | 219° |
| 2026-05-07 02:55 | -24.07448 | 172.48817 | 30035 ft | 412 kts | 219° |
| 2026-05-07 02:56 | -24.12089 | 172.45059 | 30033 ft | 412 kts | 219° |
| 2026-05-07 02:56 | -24.16695 | 172.41328 | 30034 ft | 413 kts | 219° |
| 2026-05-07 02:57 | -24.21345 | 172.37555 | 30036 ft | 413 kts | 219° |
| 2026-05-07 02:57 | -24.25951 | 172.33813 | 30033 ft | 413 kts | 219° |
| 2026-05-07 02:58 | -24.30593 | 172.30041 | 30037 ft | 412 kts | 219° |
| 2026-05-07 02:58 | -24.35194 | 172.26298 | 30036 ft | 413 kts | 219° |
| 2026-05-07 02:59 | -24.39815 | 172.22534 | 30042 ft | 413 kts | 219° |
| 2026-05-07 02:59 | -24.44457 | 172.18751 | 30040 ft | 414 kts | 219° |
| 2026-05-07 03:00 | -24.49076 | 172.14983 | 30038 ft | 413 kts | 219° |
| 2026-05-07 03:00 | -24.53699 | 172.11208 | 30041 ft | 414 kts | 219° |
| 2026-05-07 03:01 | -24.58326 | 172.07426 | 30031 ft | 412 kts | 219° |
| 2026-05-07 03:01 | -24.62941 | 172.03651 | 30033 ft | 412 kts | 219° |
| 2026-05-07 03:02 | -24.67550 | 171.99878 | 30033 ft | 412 kts | 219° |
| 2026-05-07 03:02 | -24.72166 | 171.96095 | 30039 ft | 413 kts | 219° |
| 2026-05-07 03:03 | -24.76766 | 171.92322 | 30045 ft | 412 kts | 219° |
| 2026-05-07 03:03 | -24.81358 | 171.88550 | 30041 ft | 411 kts | 220° |
| 2026-05-07 03:04 | -24.85957 | 171.84769 | 30047 ft | 412 kts | 219° |
| 2026-05-07 03:04 | -24.90570 | 171.80975 | 30041 ft | 413 kts | 219° |
| 2026-05-07 03:05 | -24.95170 | 171.77188 | 30049 ft | 411 kts | 219° |
| 2026-05-07 03:05 | -24.99750 | 171.73413 | 30041 ft | 412 kts | 219° |
| 2026-05-07 03:06 | -25.04245 | 171.69507 | 30042 ft | 411 kts | 221° |
| 2026-05-07 03:06 | -25.08654 | 171.65454 | 30040 ft | 412 kts | 222° |
| 2026-05-07 03:07 | -25.13063 | 171.61388 | 30037 ft | 414 kts | 222° |
| 2026-05-07 03:07 | -25.17482 | 171.57333 | 30032 ft | 414 kts | 222° |
| 2026-05-07 03:08 | -25.21938 | 171.53261 | 30037 ft | 413 kts | 222° |
| 2026-05-07 03:08 | -25.26371 | 171.49216 | 30035 ft | 413 kts | 222° |
| 2026-05-07 03:09 | -25.30804 | 171.45167 | 30033 ft | 412 kts | 222° |
| 2026-05-07 03:09 | -25.35215 | 171.41136 | 30036 ft | 413 kts | 222° |
| 2026-05-07 03:10 | -25.39669 | 171.37062 | 30037 ft | 411 kts | 222° |
| 2026-05-07 03:10 | -25.44070 | 171.33034 | 30036 ft | 413 kts | 222° |
| 2026-05-07 03:11 | -25.48508 | 171.28966 | 30039 ft | 412 kts | 222° |
| 2026-05-07 03:11 | -25.52901 | 171.24936 | 30041 ft | 412 kts | 222° |
| 2026-05-07 03:12 | -25.57327 | 171.20872 | 30041 ft | 412 kts | 222° |
| 2026-05-07 03:12 | -25.61750 | 171.16806 | 30039 ft | 413 kts | 222° |
| 2026-05-07 03:13 | -25.66175 | 171.12733 | 30043 ft | 412 kts | 222° |
| 2026-05-07 03:13 | -25.70588 | 171.08670 | 30042 ft | 413 kts | 222° |
| 2026-05-07 03:14 | -25.75013 | 171.04590 | 30045 ft | 412 kts | 222° |
| 2026-05-07 03:15 | -25.81630 | 170.98480 | 30045 ft | 411 kts | 222° |
| 2026-05-07 03:15 | -25.86027 | 170.94415 | 30048 ft | 411 kts | 222° |
| 2026-05-07 03:16 | -25.90442 | 170.90330 | 30048 ft | 411 kts | 222° |
| 2026-05-07 03:16 | -25.94835 | 170.86263 | 30049 ft | 413 kts | 222° |
| 2026-05-07 03:17 | -25.99251 | 170.82172 | 30050 ft | 411 kts | 222° |
| 2026-05-07 03:17 | -26.03649 | 170.78088 | 30052 ft | 412 kts | 222° |
| 2026-05-07 03:18 | -26.08059 | 170.73991 | 30054 ft | 413 kts | 222° |
| 2026-05-07 03:18 | -26.12472 | 170.69887 | 30053 ft | 412 kts | 223° |
| 2026-05-07 03:19 | -26.16858 | 170.65805 | 30053 ft | 410 kts | 222° |
| 2026-05-07 03:19 | -26.21226 | 170.61734 | 30052 ft | 410 kts | 222° |
| 2026-05-07 03:20 | -26.25620 | 170.57634 | 30057 ft | 410 kts | 222° |
| 2026-05-07 03:20 | -26.30007 | 170.53538 | 30056 ft | 411 kts | 222° |
| 2026-05-07 03:21 | -26.34401 | 170.49432 | 30058 ft | 412 kts | 222° |
| 2026-05-07 03:21 | -26.38808 | 170.45309 | 30059 ft | 414 kts | 223° |
| 2026-05-07 03:22 | -26.43217 | 170.41182 | 30060 ft | 411 kts | 223° |
| 2026-05-07 03:22 | -26.47593 | 170.37082 | 30059 ft | 413 kts | 223° |
| 2026-05-07 03:23 | -26.51998 | 170.32945 | 30059 ft | 413 kts | 223° |
| 2026-05-07 03:23 | -26.56394 | 170.28816 | 30063 ft | 412 kts | 223° |
| 2026-05-07 03:24 | -26.60789 | 170.24681 | 30064 ft | 412 kts | 223° |
| 2026-05-07 03:24 | -26.65198 | 170.20531 | 30063 ft | 413 kts | 223° |
| 2026-05-07 03:25 | -26.69581 | 170.16402 | 30063 ft | 411 kts | 223° |
| 2026-05-07 03:25 | -26.73957 | 170.12273 | 30064 ft | 411 kts | 223° |
| 2026-05-07 03:26 | -26.78353 | 170.08121 | 30066 ft | 413 kts | 223° |
| 2026-05-07 03:26 | -26.82722 | 170.03992 | 30068 ft | 411 kts | 223° |
| 2026-05-07 03:27 | -26.87124 | 169.99828 | 30062 ft | 412 kts | 223° |
| 2026-05-07 03:27 | -26.91492 | 169.95689 | 30066 ft | 412 kts | 223° |
| 2026-05-07 03:28 | -26.95891 | 169.91518 | 30067 ft | 411 kts | 223° |
| 2026-05-07 03:28 | -27.00256 | 169.87373 | 30067 ft | 413 kts | 223° |
| 2026-05-07 03:29 | -27.04658 | 169.83189 | 30067 ft | 411 kts | 223° |
| 2026-05-07 03:29 | -27.09014 | 169.79045 | 30065 ft | 413 kts | 223° |
| 2026-05-07 03:30 | -27.13417 | 169.74854 | 30065 ft | 412 kts | 223° |
| 2026-05-07 03:30 | -27.17783 | 169.70689 | 30065 ft | 413 kts | 223° |
| 2026-05-07 03:31 | -27.22187 | 169.66487 | 30066 ft | 413 kts | 224° |
| 2026-05-07 03:31 | -27.26552 | 169.62315 | 30063 ft | 414 kts | 223° |
| 2026-05-07 03:32 | -27.30963 | 169.58098 | 30064 ft | 414 kts | 223° |
| 2026-05-07 03:32 | -27.35358 | 169.53891 | 30066 ft | 413 kts | 224° |
| 2026-05-07 03:33 | -27.39721 | 169.49710 | 30065 ft | 412 kts | 224° |
| 2026-05-07 03:33 | -27.44102 | 169.45506 | 30064 ft | 413 kts | 224° |
| 2026-05-07 03:34 | -27.48459 | 169.41319 | 30065 ft | 413 kts | 224° |
| 2026-05-07 03:34 | -27.52854 | 169.37093 | 30064 ft | 412 kts | 224° |
| 2026-05-07 03:35 | -27.57207 | 169.32903 | 30062 ft | 413 kts | 225° |
| 2026-05-07 03:35 | -27.61583 | 169.28685 | 30067 ft | 413 kts | 225° |
| 2026-05-07 03:36 | -27.65950 | 169.24474 | 30065 ft | 412 kts | 224° |
| 2026-05-07 03:36 | -27.70324 | 169.20252 | 30064 ft | 414 kts | 225° |
| 2026-05-07 03:37 | -27.74695 | 169.16026 | 30066 ft | 413 kts | 225° |
| 2026-05-07 03:37 | -27.79063 | 169.11800 | 30065 ft | 412 kts | 225° |
| 2026-05-07 03:38 | -27.83428 | 169.07568 | 30070 ft | 412 kts | 225° |
| 2026-05-07 03:38 | -27.87771 | 169.03354 | 30067 ft | 414 kts | 225° |
| 2026-05-07 03:39 | -27.92165 | 168.99087 | 30071 ft | 413 kts | 225° |
| 2026-05-07 03:39 | -27.96525 | 168.94850 | 30067 ft | 414 kts | 225° |
| 2026-05-07 03:40 | -28.00872 | 168.90619 | 30068 ft | 413 kts | 225° |
| 2026-05-07 03:40 | -28.05259 | 168.86343 | 30067 ft | 414 kts | 225° |
| 2026-05-07 03:41 | -28.09601 | 168.82108 | 30064 ft | 413 kts | 225° |
| 2026-05-07 03:41 | -28.13981 | 168.77830 | 30067 ft | 414 kts | 225° |
| 2026-05-07 03:42 | -28.18325 | 168.73587 | 30063 ft | 413 kts | 225° |
| 2026-05-07 03:42 | -28.22697 | 168.69305 | 30060 ft | 413 kts | 225° |
| 2026-05-07 03:43 | -28.27063 | 168.65030 | 30066 ft | 416 kts | 225° |
| 2026-05-07 03:43 | -28.31422 | 168.60756 | 30064 ft | 412 kts | 226° |
| 2026-05-07 03:44 | -28.35778 | 168.56482 | 30065 ft | 413 kts | 226° |
| 2026-05-07 03:44 | -28.40156 | 168.52174 | 30064 ft | 413 kts | 225° |
| 2026-05-07 03:45 | -28.44491 | 168.47908 | 30064 ft | 414 kts | 225° |
| 2026-05-07 03:45 | -28.48859 | 168.43605 | 30063 ft | 413 kts | 226° |
| 2026-05-07 03:46 | -28.53205 | 168.39317 | 30068 ft | 415 kts | 226° |
| 2026-05-07 03:46 | -28.57554 | 168.35022 | 30068 ft | 414 kts | 226° |
| 2026-05-07 03:47 | -28.61910 | 168.30716 | 30071 ft | 413 kts | 226° |
| 2026-05-07 03:47 | -28.66242 | 168.26427 | 30070 ft | 414 kts | 226° |
| 2026-05-07 03:48 | -28.70616 | 168.22092 | 30072 ft | 414 kts | 226° |
| 2026-05-07 03:48 | -28.74961 | 168.17781 | 30073 ft | 413 kts | 226° |
| 2026-05-07 03:49 | -28.79326 | 168.13449 | 30072 ft | 415 kts | 226° |
| 2026-05-07 03:49 | -28.83661 | 168.09142 | 30076 ft | 414 kts | 226° |
| 2026-05-07 03:50 | -28.87999 | 168.04825 | 30076 ft | 413 kts | 226° |
| 2026-05-07 03:50 | -28.92345 | 168.00491 | 30076 ft | 412 kts | 227° |
| 2026-05-07 03:51 | -28.96681 | 167.96153 | 30077 ft | 412 kts | 228° |
| 2026-05-07 03:51 | -29.00380 | 167.91299 | 30081 ft | 405 kts | 240° |
| 2026-05-07 03:52 | -29.02883 | 167.85579 | 30075 ft | 401 kts | 250° |
| 2026-05-07 03:52 | -29.04843 | 167.79597 | 30076 ft | 401 kts | 252° |
| 2026-05-07 03:53 | -29.06756 | 167.73589 | 30066 ft | 401 kts | 252° |
| 2026-05-07 03:53 | -29.08662 | 167.67619 | 30063 ft | 401 kts | 251° |
| 2026-05-07 03:54 | -29.10581 | 167.61629 | 30067 ft | 400 kts | 252° |
| 2026-05-07 03:54 | -29.12506 | 167.55626 | 30061 ft | 401 kts | 251° |
| 2026-05-07 03:55 | -29.14422 | 167.49646 | 30062 ft | 402 kts | 252° |
| 2026-05-07 03:55 | -29.16338 | 167.43665 | 30059 ft | 401 kts | 252° |
| 2026-05-07 03:56 | -29.18257 | 167.37657 | 30056 ft | 401 kts | 251° |
| 2026-05-07 03:56 | -29.20166 | 167.31673 | 30059 ft | 402 kts | 252° |
| 2026-05-07 03:57 | -29.22088 | 167.25638 | 30057 ft | 402 kts | 252° |
| 2026-05-07 03:57 | -29.23990 | 167.19650 | 30057 ft | 401 kts | 252° |
| 2026-05-07 03:58 | -29.25888 | 167.13663 | 30052 ft | 401 kts | 252° |
| 2026-05-07 03:58 | -29.27800 | 167.07622 | 30050 ft | 402 kts | 252° |
| 2026-05-07 03:59 | -29.29700 | 167.01614 | 30051 ft | 401 kts | 253° |
| 2026-05-07 03:59 | -29.31601 | 166.95592 | 30050 ft | 403 kts | 253° |
| 2026-05-07 04:00 | -29.33491 | 166.89595 | 30049 ft | 401 kts | 253° |
| 2026-05-07 04:00 | -29.35384 | 166.83563 | 30046 ft | 401 kts | 252° |
| 2026-05-07 04:01 | -29.37276 | 166.77539 | 30046 ft | 401 kts | 252° |
| 2026-05-07 04:01 | -29.39149 | 166.71564 | 30039 ft | 400 kts | 253° |
| 2026-05-07 04:02 | -29.41038 | 166.65526 | 30046 ft | 400 kts | 253° |
| 2026-05-07 04:02 | -29.42898 | 166.59566 | 30041 ft | 400 kts | 253° |
| 2026-05-07 04:03 | -29.44781 | 166.53522 | 30041 ft | 401 kts | 252° |
| 2026-05-07 04:03 | -29.46646 | 166.47536 | 30038 ft | 399 kts | 253° |
| 2026-05-07 04:04 | -29.48512 | 166.41527 | 30036 ft | 400 kts | 253° |
| 2026-05-07 04:04 | -29.50368 | 166.35530 | 30035 ft | 401 kts | 253° |
| 2026-05-07 04:05 | -29.52239 | 166.29481 | 30035 ft | 401 kts | 253° |
| 2026-05-07 04:05 | -29.54089 | 166.23488 | 30032 ft | 399 kts | 253° |
| 2026-05-07 04:06 | -29.55944 | 166.17461 | 30033 ft | 401 kts | 254° |
| 2026-05-07 04:06 | -29.57805 | 166.11404 | 30031 ft | 401 kts | 253° |
| 2026-05-07 04:07 | -29.59648 | 166.05397 | 30032 ft | 401 kts | 254° |
| 2026-05-07 04:07 | -29.61496 | 165.99368 | 30029 ft | 399 kts | 253° |
| 2026-05-07 04:08 | -29.63332 | 165.93368 | 30031 ft | 400 kts | 253° |
| 2026-05-07 04:08 | -29.65175 | 165.87337 | 30026 ft | 399 kts | 254° |
| 2026-05-07 04:09 | -29.67019 | 165.81288 | 30026 ft | 401 kts | 254° |
| 2026-05-07 04:09 | -29.68846 | 165.75282 | 30028 ft | 399 kts | 254° |
| 2026-05-07 04:10 | -29.70688 | 165.69218 | 30028 ft | 399 kts | 254° |
| 2026-05-07 04:10 | -29.72513 | 165.63194 | 30029 ft | 400 kts | 254° |
| 2026-05-07 04:11 | -29.74321 | 165.57224 | 30029 ft | 398 kts | 254° |
| 2026-05-07 04:11 | -29.76144 | 165.51186 | 30027 ft | 400 kts | 255° |
| 2026-05-07 04:12 | -29.77957 | 165.45169 | 30022 ft | 397 kts | 255° |
| 2026-05-07 04:12 | -29.79777 | 165.39121 | 30017 ft | 397 kts | 255° |
| 2026-05-07 04:13 | -29.81578 | 165.33119 | 30018 ft | 400 kts | 255° |
| 2026-05-07 04:13 | -29.83398 | 165.27049 | 30016 ft | 398 kts | 255° |
| 2026-05-07 04:14 | -29.85188 | 165.21063 | 30016 ft | 398 kts | 255° |
| 2026-05-07 04:14 | -29.86991 | 165.15024 | 30015 ft | 398 kts | 255° |
| 2026-05-07 04:15 | -29.88781 | 165.09019 | 30011 ft | 398 kts | 256° |
| 2026-05-07 04:15 | -29.90585 | 165.02968 | 30007 ft | 397 kts | 256° |
| 2026-05-07 04:16 | -29.92384 | 164.96921 | 30010 ft | 400 kts | 256° |
| 2026-05-07 04:16 | -29.94177 | 164.90874 | 30009 ft | 398 kts | 256° |
| 2026-05-07 04:17 | -29.95952 | 164.84892 | 30004 ft | 396 kts | 256° |
| 2026-05-07 04:17 | -29.97733 | 164.78857 | 30004 ft | 397 kts | 256° |
| 2026-05-07 04:18 | -29.99507 | 164.72830 | 30004 ft | 395 kts | 256° |
| 2026-05-07 04:18 | -30.01269 | 164.66830 | 30002 ft | 397 kts | 256° |
| 2026-05-07 04:19 | -30.03036 | 164.60808 | 30003 ft | 397 kts | 256° |
| 2026-05-07 04:19 | -30.04801 | 164.54782 | 30001 ft | 395 kts | 256° |
| 2026-05-07 04:20 | -30.06550 | 164.48802 | 30000 ft | 395 kts | 256° |
| 2026-05-07 04:20 | -30.08302 | 164.42798 | 29998 ft | 395 kts | 256° |
| 2026-05-07 04:21 | -30.10912 | 164.33832 | 29993 ft | 393 kts | 257° |
| 2026-05-07 04:21 | -30.12650 | 164.27849 | 29992 ft | 393 kts | 256° |
| 2026-05-07 04:22 | -30.14393 | 164.21841 | 29998 ft | 395 kts | 256° |
| 2026-05-07 04:22 | -30.16134 | 164.15832 | 29985 ft | 394 kts | 256° |
| 2026-05-07 04:23 | -30.17865 | 164.09853 | 29989 ft | 394 kts | 257° |
| 2026-05-07 04:23 | -30.19599 | 164.03833 | 29979 ft | 393 kts | 257° |
| 2026-05-07 04:24 | -30.21325 | 163.97833 | 29975 ft | 394 kts | 257° |
| 2026-05-07 04:24 | -30.23051 | 163.91821 | 29966 ft | 393 kts | 257° |
| 2026-05-07 04:25 | -30.24764 | 163.85841 | 29970 ft | 394 kts | 257° |
| 2026-05-07 04:25 | -30.26492 | 163.79811 | 29966 ft | 393 kts | 257° |
| 2026-05-07 04:26 | -30.28214 | 163.73782 | 29966 ft | 394 kts | 257° |
| 2026-05-07 04:26 | -30.29925 | 163.67789 | 29969 ft | 393 kts | 257° |
| 2026-05-07 04:27 | -30.31640 | 163.61763 | 29964 ft | 393 kts | 257° |
| 2026-05-07 04:27 | -30.33350 | 163.55731 | 29963 ft | 395 kts | 257° |
| 2026-05-07 04:28 | -30.35058 | 163.49698 | 29968 ft | 393 kts | 257° |
| 2026-05-07 04:28 | -30.36769 | 163.43655 | 29970 ft | 394 kts | 257° |
| 2026-05-07 04:29 | -30.38467 | 163.37640 | 29964 ft | 395 kts | 258° |
| 2026-05-07 04:29 | -30.40163 | 163.31615 | 29967 ft | 392 kts | 258° |
| 2026-05-07 04:30 | -30.41854 | 163.25601 | 29965 ft | 393 kts | 258° |
| 2026-05-07 04:30 | -30.43539 | 163.19591 | 29965 ft | 393 kts | 258° |
| 2026-05-07 04:31 | -30.45225 | 163.13564 | 29966 ft | 392 kts | 258° |
| 2026-05-07 04:31 | -30.46899 | 163.07581 | 29966 ft | 393 kts | 258° |
| 2026-05-07 04:32 | -30.48584 | 163.01535 | 29966 ft | 392 kts | 258° |
| 2026-05-07 04:32 | -30.50272 | 162.95502 | 29969 ft | 393 kts | 258° |
| 2026-05-07 04:33 | -30.51967 | 162.89502 | 29966 ft | 393 kts | 258° |
| 2026-05-07 04:33 | -30.53657 | 162.83517 | 29967 ft | 392 kts | 258° |
| 2026-05-07 04:34 | -30.55350 | 162.77486 | 29970 ft | 392 kts | 258° |
| 2026-05-07 04:34 | -30.57038 | 162.71468 | 29968 ft | 392 kts | 258° |
| 2026-05-07 04:35 | -30.58721 | 162.65454 | 29967 ft | 393 kts | 258° |
| 2026-05-07 04:35 | -30.60399 | 162.59448 | 29965 ft | 392 kts | 258° |
| 2026-05-07 04:36 | -30.62077 | 162.53436 | 29963 ft | 392 kts | 258° |
| 2026-05-07 04:36 | -30.63751 | 162.47409 | 29960 ft | 392 kts | 258° |
| 2026-05-07 04:37 | -30.65430 | 162.41356 | 29958 ft | 394 kts | 258° |
| 2026-05-07 04:37 | -30.67093 | 162.35349 | 29958 ft | 391 kts | 258° |
| 2026-05-07 04:38 | -30.68757 | 162.29324 | 29955 ft | 392 kts | 259° |
| 2026-05-07 04:38 | -30.70424 | 162.23283 | 29955 ft | 394 kts | 259° |
| 2026-05-07 04:39 | -30.72090 | 162.17232 | 29952 ft | 392 kts | 259° |
| 2026-05-07 04:39 | -30.73745 | 162.11206 | 29949 ft | 394 kts | 259° |
| 2026-05-07 04:40 | -30.75406 | 162.05150 | 29947 ft | 393 kts | 259° |
| 2026-05-07 04:40 | -30.77062 | 161.99092 | 29948 ft | 393 kts | 259° |
| 2026-05-07 04:41 | -30.78712 | 161.93050 | 29948 ft | 393 kts | 259° |
| 2026-05-07 04:41 | -30.80375 | 161.86951 | 29947 ft | 393 kts | 259° |
| 2026-05-07 04:42 | -30.82014 | 161.80931 | 29948 ft | 390 kts | 259° |
| 2026-05-07 04:42 | -30.83640 | 161.74939 | 29946 ft | 390 kts | 259° |
| 2026-05-07 04:43 | -30.85278 | 161.68884 | 29947 ft | 390 kts | 259° |
| 2026-05-07 04:43 | -30.86899 | 161.62877 | 29946 ft | 391 kts | 259° |
| 2026-05-07 04:44 | -30.88530 | 161.56824 | 29947 ft | 391 kts | 259° |
| 2026-05-07 04:44 | -30.90157 | 161.50787 | 29947 ft | 391 kts | 259° |
| 2026-05-07 04:45 | -30.91780 | 161.44750 | 29946 ft | 390 kts | 259° |
| 2026-05-07 04:45 | -30.93392 | 161.38731 | 29949 ft | 392 kts | 259° |
| 2026-05-07 04:46 | -30.95005 | 161.32693 | 29944 ft | 390 kts | 260° |
| 2026-05-07 04:46 | -30.96618 | 161.26651 | 29948 ft | 390 kts | 260° |
| 2026-05-07 04:47 | -30.98223 | 161.20624 | 29946 ft | 391 kts | 260° |
| 2026-05-07 04:47 | -30.99828 | 161.14586 | 29945 ft | 389 kts | 259° |
| 2026-05-07 04:48 | -31.01432 | 161.08540 | 29951 ft | 390 kts | 260° |
| 2026-05-07 04:48 | -31.03026 | 161.02515 | 29946 ft | 390 kts | 260° |
| 2026-05-07 04:49 | -31.04619 | 160.96493 | 29937 ft | 388 kts | 260° |
| 2026-05-07 04:49 | -31.06202 | 160.90491 | 29941 ft | 388 kts | 260° |
| 2026-05-07 04:50 | -31.07789 | 160.84451 | 29936 ft | 390 kts | 260° |
| 2026-05-07 04:50 | -31.09371 | 160.78415 | 29924 ft | 390 kts | 260° |
| 2026-05-07 04:51 | -31.10957 | 160.72368 | 29924 ft | 389 kts | 260° |
| 2026-05-07 04:51 | -31.12540 | 160.66310 | 29930 ft | 391 kts | 260° |
| 2026-05-07 04:52 | -31.14121 | 160.60251 | 29927 ft | 390 kts | 260° |
| 2026-05-07 04:52 | -31.15704 | 160.54163 | 29929 ft | 393 kts | 260° |
| 2026-05-07 04:53 | -31.17280 | 160.48099 | 29930 ft | 389 kts | 260° |
| 2026-05-07 04:53 | -31.18851 | 160.42035 | 29926 ft | 391 kts | 260° |
| 2026-05-07 04:54 | -31.20424 | 160.35954 | 29932 ft | 392 kts | 260° |
| 2026-05-07 04:54 | -31.21998 | 160.29857 | 29932 ft | 392 kts | 261° |
| 2026-05-07 04:55 | -31.23564 | 160.23779 | 29927 ft | 391 kts | 260° |
| 2026-05-07 04:55 | -31.25124 | 160.17706 | 29924 ft | 390 kts | 261° |
| 2026-05-07 04:56 | -31.26679 | 160.11630 | 29922 ft | 391 kts | 260° |
| 2026-05-07 04:56 | -31.28231 | 160.05568 | 29916 ft | 390 kts | 261° |
| 2026-05-07 04:57 | -31.29786 | 159.99478 | 29924 ft | 390 kts | 261° |
| 2026-05-07 04:57 | -31.31338 | 159.93382 | 29927 ft | 390 kts | 261° |
| 2026-05-07 04:58 | -31.32881 | 159.87306 | 29931 ft | 391 kts | 261° |
| 2026-05-07 04:58 | -31.34438 | 159.81168 | 29935 ft | 392 kts | 261° |
| 2026-05-07 04:59 | -31.35985 | 159.75058 | 29935 ft | 391 kts | 260° |
| 2026-05-07 04:59 | -31.37524 | 159.68951 | 29933 ft | 392 kts | 261° |
| 2026-05-07 05:00 | -31.39062 | 159.62856 | 29936 ft | 393 kts | 261° |
| 2026-05-07 05:00 | -31.40604 | 159.56718 | 29938 ft | 392 kts | 261° |
| 2026-05-07 05:01 | -31.42148 | 159.50568 | 29931 ft | 393 kts | 261° |
| 2026-05-07 05:01 | -31.43683 | 159.44434 | 29935 ft | 392 kts | 261° |
| 2026-05-07 05:02 | -31.45216 | 159.38292 | 29933 ft | 394 kts | 261° |
| 2026-05-07 05:02 | -31.46745 | 159.32156 | 29934 ft | 394 kts | 261° |
| 2026-05-07 05:03 | -31.48269 | 159.26028 | 29930 ft | 393 kts | 261° |
| 2026-05-07 05:03 | -31.49798 | 159.19855 | 29930 ft | 395 kts | 261° |
| 2026-05-07 05:04 | -31.51326 | 159.13684 | 29936 ft | 395 kts | 261° |
| 2026-05-07 05:04 | -31.52978 | 159.07504 | 29939 ft | 401 kts | 257° |
| 2026-05-07 05:05 | -31.55278 | 159.01485 | 29932 ft | 409 kts | 252° |
| 2026-05-07 05:05 | -31.57852 | 158.95515 | 29938 ft | 410 kts | 251° |
| 2026-05-07 05:06 | -31.60446 | 158.89574 | 29935 ft | 410 kts | 251° |
| 2026-05-07 05:06 | -31.63014 | 158.83630 | 29931 ft | 409 kts | 251° |
| 2026-05-07 05:07 | -31.65570 | 158.77652 | 29923 ft | 410 kts | 252° |
| 2026-05-07 05:07 | -31.68120 | 158.71661 | 29928 ft | 411 kts | 251° |
| 2026-05-07 05:08 | -31.70678 | 158.65631 | 29920 ft | 413 kts | 251° |
| 2026-05-07 05:08 | -31.73232 | 158.59604 | 29921 ft | 413 kts | 251° |
| 2026-05-07 05:09 | -31.75794 | 158.53545 | 29915 ft | 414 kts | 251° |
| 2026-05-07 05:09 | -31.78361 | 158.47461 | 29901 ft | 417 kts | 251° |
| 2026-05-07 05:10 | -31.80929 | 158.41374 | 29908 ft | 415 kts | 251° |
| 2026-05-07 05:10 | -31.83500 | 158.35263 | 29907 ft | 420 kts | 251° |
| 2026-05-07 05:11 | -31.86070 | 158.29147 | 29910 ft | 419 kts | 251° |
| 2026-05-07 05:11 | -31.88668 | 158.22951 | 29913 ft | 422 kts | 251° |
| 2026-05-07 05:12 | -31.91250 | 158.16785 | 29907 ft | 423 kts | 251° |
| 2026-05-07 05:12 | -31.93847 | 158.10577 | 29909 ft | 425 kts | 251° |
| 2026-05-07 05:13 | -31.96449 | 158.04334 | 29910 ft | 425 kts | 251° |
| 2026-05-07 05:13 | -31.99060 | 157.98062 | 29904 ft | 426 kts | 251° |
| 2026-05-07 05:14 | -32.01666 | 157.91801 | 29904 ft | 424 kts | 251° |
| 2026-05-07 05:14 | -32.04259 | 157.85558 | 29906 ft | 424 kts | 251° |
| 2026-05-07 05:15 | -32.06853 | 157.79292 | 29902 ft | 425 kts | 251° |
| 2026-05-07 05:15 | -32.09429 | 157.73070 | 29898 ft | 425 kts | 251° |
| 2026-05-07 05:16 | -32.12009 | 157.66821 | 29895 ft | 424 kts | 251° |
| 2026-05-07 05:16 | -32.14587 | 157.60561 | 29893 ft | 425 kts | 251° |
| 2026-05-07 05:17 | -32.17153 | 157.54327 | 29893 ft | 422 kts | 251° |
| 2026-05-07 05:17 | -32.19724 | 157.48067 | 29890 ft | 421 kts | 251° |
| 2026-05-07 05:18 | -32.22275 | 157.41840 | 29887 ft | 424 kts | 252° |
| 2026-05-07 05:18 | -32.24843 | 157.35564 | 29882 ft | 421 kts | 252° |
| 2026-05-07 05:19 | -32.27390 | 157.29334 | 29881 ft | 421 kts | 252° |
| 2026-05-07 05:19 | -32.29938 | 157.23086 | 29877 ft | 420 kts | 252° |
| 2026-05-07 05:20 | -32.32452 | 157.16911 | 29878 ft | 420 kts | 252° |
| 2026-05-07 05:20 | -32.34996 | 157.10652 | 29877 ft | 420 kts | 252° |
| 2026-05-07 05:21 | -32.38776 | 157.01334 | 29876 ft | 418 kts | 253° |
| 2026-05-07 05:22 | -32.41284 | 156.95126 | 29874 ft | 419 kts | 252° |
| 2026-05-07 05:22 | -32.43792 | 156.88913 | 29877 ft | 420 kts | 253° |
| 2026-05-07 05:23 | -32.46316 | 156.82651 | 29872 ft | 419 kts | 252° |
| 2026-05-07 05:23 | -32.48827 | 156.76419 | 29877 ft | 420 kts | 253° |
| 2026-05-07 05:24 | -32.51333 | 156.70181 | 29875 ft | 417 kts | 253° |
| 2026-05-07 05:24 | -32.53834 | 156.63943 | 29875 ft | 420 kts | 253° |
| 2026-05-07 05:25 | -32.56332 | 156.57703 | 29875 ft | 416 kts | 253° |
| 2026-05-07 05:25 | -32.58803 | 156.51523 | 29875 ft | 419 kts | 253° |
| 2026-05-07 05:26 | -32.61283 | 156.45303 | 29872 ft | 416 kts | 253° |
| 2026-05-07 05:26 | -32.63763 | 156.39078 | 29877 ft | 417 kts | 253° |
| 2026-05-07 05:27 | -32.66228 | 156.32871 | 29875 ft | 417 kts | 253° |
| 2026-05-07 05:27 | -32.68675 | 156.26706 | 29873 ft | 413 kts | 254° |
| 2026-05-07 05:28 | -32.71129 | 156.20514 | 29873 ft | 413 kts | 254° |
| 2026-05-07 05:28 | -32.73569 | 156.14333 | 29874 ft | 412 kts | 254° |
| 2026-05-07 05:29 | -32.76002 | 156.08165 | 29868 ft | 414 kts | 254° |
| 2026-05-07 05:29 | -32.78447 | 156.01961 | 29872 ft | 413 kts | 255° |
| 2026-05-07 05:30 | -32.80881 | 155.95764 | 29868 ft | 414 kts | 254° |
| 2026-05-07 05:30 | -32.83300 | 155.89607 | 29868 ft | 412 kts | 255° |
| 2026-05-07 05:31 | -32.85709 | 155.83462 | 29868 ft | 412 kts | 255° |
| 2026-05-07 05:31 | -32.88136 | 155.77248 | 29870 ft | 412 kts | 255° |
| 2026-05-07 05:32 | -32.90538 | 155.71103 | 29875 ft | 410 kts | 255° |
| 2026-05-07 05:32 | -32.92931 | 155.64958 | 29875 ft | 411 kts | 255° |
| 2026-05-07 05:33 | -32.95336 | 155.58775 | 29878 ft | 409 kts | 255° |
| 2026-05-07 05:33 | -32.97722 | 155.52632 | 29876 ft | 411 kts | 255° |
| 2026-05-07 05:34 | -33.00100 | 155.46498 | 29877 ft | 407 kts | 255° |
| 2026-05-07 05:34 | -33.02471 | 155.40366 | 29879 ft | 412 kts | 255° |
| 2026-05-07 05:35 | -33.04847 | 155.34209 | 29881 ft | 408 kts | 256° |
| 2026-05-07 05:35 | -33.07214 | 155.28078 | 29878 ft | 405 kts | 256° |
| 2026-05-07 05:36 | -33.09570 | 155.21945 | 29882 ft | 407 kts | 256° |
| 2026-05-07 05:36 | -33.11930 | 155.15810 | 29878 ft | 404 kts | 256° |
| 2026-05-07 05:37 | -33.14271 | 155.09698 | 29879 ft | 407 kts | 256° |
| 2026-05-07 05:37 | -33.16614 | 155.03581 | 29876 ft | 407 kts | 256° |
| 2026-05-07 05:38 | -33.18978 | 154.97433 | 29876 ft | 403 kts | 256° |
| 2026-05-07 05:38 | -33.21314 | 154.91350 | 29885 ft | 406 kts | 256° |
| 2026-05-07 05:39 | -33.23666 | 154.85211 | 29876 ft | 404 kts | 256° |
| 2026-05-07 05:39 | -33.25981 | 154.79164 | 29883 ft | 402 kts | 256° |
| 2026-05-07 05:40 | -33.28306 | 154.73064 | 29885 ft | 402 kts | 256° |
| 2026-05-07 05:40 | -33.30619 | 154.66992 | 29882 ft | 403 kts | 256° |
| 2026-05-07 05:41 | -33.32942 | 154.60889 | 29880 ft | 404 kts | 257° |
| 2026-05-07 05:41 | -33.35241 | 154.54837 | 29887 ft | 401 kts | 257° |
| 2026-05-07 05:42 | -33.37538 | 154.48767 | 29885 ft | 400 kts | 257° |
| 2026-05-07 05:42 | -33.39828 | 154.42717 | 29888 ft | 399 kts | 257° |
| 2026-05-07 05:43 | -33.42122 | 154.36636 | 29884 ft | 401 kts | 257° |
| 2026-05-07 05:43 | -33.44415 | 154.30554 | 29887 ft | 400 kts | 257° |
| 2026-05-07 05:44 | -33.46674 | 154.24558 | 29891 ft | 395 kts | 257° |
| 2026-05-07 05:44 | -33.48941 | 154.18515 | 29890 ft | 400 kts | 257° |
| 2026-05-07 05:45 | -33.51221 | 154.12428 | 29887 ft | 401 kts | 258° |
| 2026-05-07 05:45 | -33.53482 | 154.06381 | 29887 ft | 398 kts | 257° |
| 2026-05-07 05:46 | -33.55745 | 154.00325 | 29894 ft | 399 kts | 258° |
| 2026-05-07 05:46 | -33.57989 | 153.94301 | 29897 ft | 397 kts | 258° |
| 2026-05-07 05:47 | -33.60250 | 153.88222 | 29900 ft | 400 kts | 258° |
| 2026-05-07 05:47 | -33.62513 | 153.82117 | 29907 ft | 401 kts | 258° |
| 2026-05-07 05:48 | -33.64788 | 153.75980 | 29902 ft | 403 kts | 258° |
| 2026-05-07 05:48 | -33.67051 | 153.69869 | 29909 ft | 401 kts | 258° |
| 2026-05-07 05:49 | -33.69314 | 153.63747 | 29917 ft | 400 kts | 257° |
| 2026-05-07 05:49 | -33.71579 | 153.57597 | 29924 ft | 406 kts | 257° |
| 2026-05-07 05:50 | -33.73851 | 153.51428 | 29924 ft | 403 kts | 257° |
| 2026-05-07 05:50 | -33.76104 | 153.45303 | 29928 ft | 404 kts | 258° |
| 2026-05-07 05:51 | -33.78384 | 153.39070 | 29922 ft | 404 kts | 257° |
| 2026-05-07 05:51 | -33.80643 | 153.32904 | 29930 ft | 407 kts | 258° |
| 2026-05-07 05:52 | -33.82918 | 153.26671 | 29930 ft | 409 kts | 258° |
| 2026-05-07 05:52 | -33.85207 | 153.20393 | 29934 ft | 409 kts | 258° |
| 2026-05-07 05:53 | -33.87464 | 153.14183 | 29941 ft | 411 kts | 258° |
| 2026-05-07 05:53 | -33.89748 | 153.07909 | 29940 ft | 409 kts | 258° |
| 2026-05-07 05:54 | -33.92023 | 153.01628 | 29940 ft | 411 kts | 258° |
| 2026-05-07 05:54 | -33.94319 | 152.95254 | 29939 ft | 416 kts | 257° |
| 2026-05-07 05:55 | -33.96630 | 152.88856 | 29955 ft | 417 kts | 257° |
| 2026-05-07 05:55 | -33.98940 | 152.82460 | 29941 ft | 417 kts | 257° |
| 2026-05-07 05:56 | -34.01250 | 152.76044 | 29951 ft | 418 kts | 256° |
| 2026-05-07 05:56 | -34.03488 | 152.69814 | 29959 ft | 415 kts | 256° |
| 2026-05-07 05:57 | -34.05792 | 152.63377 | 29953 ft | 418 kts | 256° |
| 2026-05-07 05:57 | -34.07536 | 152.56859 | 29955 ft | 404 kts | 267° |
| 2026-05-07 05:58 | -34.07681 | 152.50176 | 29931 ft | 397 kts | 279° |
| 2026-05-07 05:58 | -34.07111 | 152.43640 | 29947 ft | 394 kts | 281° |
| 2026-05-07 05:59 | -34.06433 | 152.37058 | 29965 ft | 396 kts | 281° |
| 2026-05-07 05:59 | -34.05766 | 152.30396 | 29971 ft | 398 kts | 281° |
| 2026-05-07 06:00 | -34.05119 | 152.23773 | 29976 ft | 400 kts | 280° |
| 2026-05-07 06:00 | -34.04474 | 152.17127 | 29973 ft | 403 kts | 280° |
| 2026-05-07 06:01 | -34.03825 | 152.10445 | 29973 ft | 402 kts | 280° |
| 2026-05-07 06:01 | -34.03168 | 152.03717 | 29981 ft | 404 kts | 279° |
| 2026-05-07 06:02 | -34.02493 | 151.96971 | 29983 ft | 406 kts | 279° |
| 2026-05-07 06:02 | -34.01814 | 151.90253 | 29990 ft | 403 kts | 279° |
| 2026-05-07 06:03 | -34.01128 | 151.83528 | 29985 ft | 404 kts | 279° |
| 2026-05-07 06:03 | -34.00090 | 151.77110 | 29996 ft | 401 kts | 288° |
| 2026-05-07 06:04 | -33.97912 | 151.70918 | 29998 ft | 401 kts | 295° |
| 2026-05-07 06:04 | -33.95367 | 151.64911 | 30009 ft | 404 kts | 295° |
| 2026-05-07 06:05 | -33.92803 | 151.58900 | 30013 ft | 401 kts | 294° |
| 2026-05-07 06:05 | -33.90268 | 151.52863 | 30019 ft | 403 kts | 294° |
| 2026-05-07 06:06 | -33.88384 | 151.46605 | 30014 ft | 400 kts | 277° |
| 2026-05-07 06:06 | -33.88318 | 151.43282 | 30020 ft | 395 kts | 266° |
| 2026-05-07 06:06 | -33.88816 | 151.40093 | 30025 ft | 379 kts | 258° |
| 2026-05-07 06:06 | -33.89505 | 151.37112 | 30018 ft | 362 kts | 256° |
| 2026-05-07 06:07 | -33.90184 | 151.34280 | 30021 ft | 346 kts | 257° |
| 2026-05-07 06:07 | -33.90823 | 151.31558 | 30016 ft | 330 kts | 257° |
| 2026-05-07 06:07 | -33.91417 | 151.28966 | 30022 ft | 315 kts | 258° |
| 2026-05-07 06:07 | -33.91986 | 151.26537 | 30017 ft | 300 kts | 257° |
| 2026-05-07 06:08 | -33.92562 | 151.24205 | 30021 ft | 285 kts | 256° |
| 2026-05-07 06:08 | -33.93116 | 151.21968 | 30020 ft | 272 kts | 256° |